LZKZ/KSC METAR and TAF weather

Enter ICAO airport designator
Station Type Date Time Source
LZKZ METAR 2019/04/25 12:00 UTC NOAA

LZKZ 251200Z 19014KT 9999 FEW047 22/11 Q1018 NOSIG


Station Type Date Time Source
LZKZ Decoded METAR 2019/04/25 12:00 UTC NOAA

Kosice, Barca, Slovakia (LZKZ) 48-39-47N 021-14-28E
Apr 25, 2019 - 08:00 AM EDT / 2019.04.25 1200 UTC
Wind: from the S (190 degrees) at 16 MPH (14 KT):0
Visibility: greater than 7 mile(s):0
Sky conditions: mostly clear
Temperature: 71 F (22 C)
Dew Point: 51 F (11 C)
Relative Humidity: 49%
Pressure (altimeter): 30.06 in. Hg (1018 hPa)
ob: LZKZ 251200Z 19014KT 9999 FEW047 22/11 Q1018 NOSIG
cycle: 12

Station Type Date Time Source
LZKZ TAF 2019/04/25 12:54 UTC NOAA

TAF LZKZ 251100Z 2512/2612 18010KT CAVOK
TEMPO 2512/2517 9999 SCT045 PROB40
TEMPO 2601/2605 VRB02KT 4000 BR NSC
BECMG 2608/2610 21015G25KT

Example: see airport list